Time,TemperatureF,DewpointF,PressureIn,WindDirection,WindDirectionDegrees,WindSpeedMPH,WindSpeedGustMPH,Humidity,HourlyPrecipIn,Conditions,Clouds,dailyrainin,SoftwareType,DateUTC
2013-02-22 00:00:00,20.5,14.1,30.36,SE,135,2.3,0.0,76,0.00,CLR,,0.00,WeatherDisplay:10.37,2013-02-22 05:00:00,
2013-02-22 00:05:00,20.5,14.1,30.36,SE,124,2.0,3.0,76,0.00,CLR,,0.00,WeatherDisplay:10.37,2013-02-22 05:05:00,
2013-02-22 00:10:00,20.5,14.1,30.36,ESE,112,1.1,1.5,76,0.00,CLR,,0.00,WeatherDisplay:10.37,2013-02-22 05:10:00,
2013-02-22 00:15:00,20.7,14.3,30.36,SE,135,2.3,2.3,76,0.00,CLR,,0.00,WeatherDisplay:10.37,2013-02-22 05:15:00,
2013-02-22 00:20:00,20.7,14.3,30.36,ESE,112,1.1,1.1,76,0.00,CLR,,0.00,WeatherDisplay:10.37,2013-02-22 05:20:00,
2013-02-22 00:25:00,20.8,14.8,30.36,SE,135,2.3,2.3,77,0.00,CLR,,0.00,WeatherDisplay:10.37,2013-02-22 05:25:00,
2013-02-22 00:30:00,20.8,14.8,30.36,SE,141,1.0,3.0,77,0.00,CLR,,0.00,WeatherDisplay:10.37,2013-02-22 05:30:00,
2013-02-22 00:35:00,20.8,14.8,30.36,SE,134,1.0,3.0,77,0.00,CLR,,0.00,WeatherDisplay:10.37,2013-02-22 05:35:00,
2013-02-22 00:40:00,21.0,14.9,30.37,ESE,112,1.1,1.1,77,0.00,CLR,,0.00,WeatherDisplay:10.37,2013-02-22 05:40:00,
2013-02-22 00:45:00,21.0,14.9,30.37,ESE,121,1.0,4.0,77,0.00,CLR,,0.00,WeatherDisplay:10.37,2013-02-22 05:45:00,
2013-02-22 00:50:00,21.0,14.9,30.37,ESE,112,2.3,2.3,77,0.00,CLR,,0.00,WeatherDisplay:10.37,2013-02-22 05:50:00,
2013-02-22 00:55:00,21.2,15.1,30.37,ESE,118,1.0,3.0,77,0.00,CLR,,0.00,WeatherDisplay:10.37,2013-02-22 05:55:00,
2013-02-22 01:00:00,21.2,15.1,30.37,SE,129,1.0,3.0,77,0.00,CLR,,0.00,WeatherDisplay:10.37,2013-02-22 06:00:00,
2013-02-22 01:05:00,21.2,15.1,30.37,ENE,68,2.3,2.3,77,0.00,CLR,,0.00,WeatherDisplay:10.37,2013-02-22 06:05:00,
2013-02-22 01:10:00,21.2,15.1,30.37,ESE,105,1.0,4.0,77,0.00,CLR,,0.00,WeatherDisplay:10.37,2013-02-22 06:10:00,
2013-02-22 01:15:00,21.2,15.1,30.37,East,94,2.0,5.0,77,0.00,CLR,,0.00,WeatherDisplay:10.37,2013-02-22 06:15:00,
2013-02-22 01:20:00,21.2,15.1,30.37,ESE,112,2.3,2.3,77,0.00,CLR,,0.00,WeatherDisplay:10.37,2013-02-22 06:20:00,
2013-02-22 01:25:00,21.2,15.1,30.37,East,91,2.0,4.0,77,0.00,CLR,,0.00,WeatherDisplay:10.37,2013-02-22 06:25:00,
2013-02-22 01:30:00,21.2,15.1,30.37,East,101,1.0,2.0,77,0.00,CLR,,0.00,WeatherDisplay:10.37,2013-02-22 06:30:00,
2013-02-22 01:35:00,21.2,15.1,30.37,East,85,1.0,4.0,77,0.00,CLR,,0.00,WeatherDisplay:10.37,2013-02-22 06:35:00,
2013-02-22 01:40:00,21.2,15.1,30.37,East,91,1.0,3.0,77,0.00,CLR,,0.00,WeatherDisplay:10.37,2013-02-22 06:40:00,
2013-02-22 01:45:00,21.4,15.3,30.37,SE,135,2.3,2.3,77,0.00,CLR,,0.00,WeatherDisplay:10.37,2013-02-22 06:45:00,
2013-02-22 01:50:00,21.2,15.1,30.37,ESE,112,4.6,4.6,77,0.00,CLR,,0.00,WeatherDisplay:10.37,2013-02-22 06:50:00,
2013-02-22 01:55:00,21.2,15.1,30.37,SE,135,4.6,4.6,77,0.00,CLR,,0.00,WeatherDisplay:10.37,2013-02-22 06:55:00,
2013-02-22 02:00:00,21.4,15.3,30.37,SE,130,2.0,4.0,77,0.00,CLR,,0.00,WeatherDisplay:10.37,2013-02-22 07:00:00,
2013-02-22 02:05:00,21.4,15.3,30.37,ESE,122,2.0,5.0,77,0.00,CLR,,0.00,WeatherDisplay:10.37,2013-02-22 07:05:00,
2013-02-22 02:10:00,21.4,15.3,30.37,ESE,119,2.0,5.0,77,0.00,CLR,,0.00,WeatherDisplay:10.37,2013-02-22 07:10:00,
2013-02-22 02:15:00,21.4,15.3,30.37,SE,135,5.2,5.2,77,0.00,CLR,,0.00,WeatherDisplay:10.37,2013-02-22 07:15:00,
2013-02-22 02:20:00,21.4,15.3,30.39,SE,132,2.0,5.0,77,0.00,CLR,,0.00,WeatherDisplay:10.37,2013-02-22 07:20:00,
2013-02-22 02:25:00,21.6,15.5,30.39,ENE,68,3.5,3.5,77,0.00,CLR,,0.00,WeatherDisplay:10.37,2013-02-22 07:25:00,
2013-02-22 02:30:00,21.6,15.5,30.39,SE,135,3.5,3.5,77,0.00,CLR,,0.00,WeatherDisplay:10.37,2013-02-22 07:30:00,
2013-02-22 02:35:00,21.6,15.5,30.39,SE,134,1.0,3.0,77,0.00,CLR,,0.00,WeatherDisplay:10.37,2013-02-22 07:35:00,
2013-02-22 02:40:00,21.6,15.5,30.38,SE,129,1.0,2.0,77,0.00,CLR,,0.00,WeatherDisplay:10.37,2013-02-22 07:40:00,
2013-02-22 02:45:00,21.6,15.5,30.38,SE,126,1.0,5.0,77,0.00,CLR,,0.00,WeatherDisplay:10.37,2013-02-22 07:45:00,
2013-02-22 02:50:00,21.7,15.6,30.38,ESE,118,2.0,7.0,77,0.00,CLR,,0.00,WeatherDisplay:10.37,2013-02-22 07:50:00,
2013-02-22 02:55:00,21.7,15.6,30.38,SSE,158,3.5,3.5,77,0.00,CLR,,0.00,WeatherDisplay:10.37,2013-02-22 07:55:00,
2013-02-22 03:00:00,21.7,15.6,30.38,SE,142,2.0,3.0,77,0.00,CLR,,0.00,WeatherDisplay:10.37,2013-02-22 08:00:00,
2013-02-22 03:05:00,21.7,15.6,30.38,ENE,68,4.6,4.6,77,0.00,CLR,,0.00,WeatherDisplay:10.37,2013-02-22 08:05:00,
2013-02-22 03:10:00,21.7,15.6,30.38,SE,135,3.5,3.5,77,0.00,CLR,,0.00,WeatherDisplay:10.37,2013-02-22 08:10:00,
2013-02-22 03:15:00,21.7,15.6,30.38,ESE,111,3.0,7.0,77,0.00,CLR,,0.00,WeatherDisplay:10.37,2013-02-22 08:15:00,
2013-02-22 03:20:00,21.7,15.6,30.35,ESE,105,3.0,6.0,77,0.00,CLR,,0.00,WeatherDisplay:10.37,2013-02-22 08:20:00,
2013-02-22 03:25:00,21.7,15.6,30.35,East,90,3.5,3.5,77,0.00,CLR,,0.00,WeatherDisplay:10.37,2013-02-22 08:25:00,
2013-02-22 03:30:00,21.6,15.5,30.35,ESE,109,2.0,5.0,77,0.00,CLR,,0.00,WeatherDisplay:10.37,2013-02-22 08:30:00,
2013-02-22 03:35:00,21.6,15.5,30.35,ESE,108,2.0,6.0,77,0.00,CLR,,0.00,WeatherDisplay:10.37,2013-02-22 08:35:00,
2013-02-22 03:40:00,21.4,15.3,30.34,ESE,105,2.0,3.0,77,0.00,CLR,,0.00,WeatherDisplay:10.37,2013-02-22 08:40:00,
2013-02-22 03:45:00,21.4,15.3,30.34,ESE,105,1.0,3.0,77,0.00,CLR,,0.00,WeatherDisplay:10.37,2013-02-22 08:45:00,
2013-02-22 03:50:00,21.2,15.4,30.34,SE,135,3.5,3.5,78,0.00,CLR,,0.00,WeatherDisplay:10.37,2013-02-22 08:50:00,
2013-02-22 03:55:00,21.2,15.4,30.34,East,88,1.0,4.0,78,0.00,CLR,,0.00,WeatherDisplay:10.37,2013-02-22 08:55:00,
2013-02-22 04:00:00,21.2,15.4,30.31,ESE,112,2.3,2.3,78,0.00,CLR,,0.00,WeatherDisplay:10.37,2013-02-22 09:00:00,
2013-02-22 04:05:00,21.2,15.4,30.31,East,93,1.0,4.0,78,0.00,CLR,,0.00,WeatherDisplay:10.37,2013-02-22 09:05:00,
2013-02-22 04:10:00,21.0,15.2,30.31,East,93,2.0,5.0,78,0.00,CLR,,0.00,WeatherDisplay:10.37,2013-02-22 09:10:00,
2013-02-22 04:15:00,21.0,15.2,30.31,ENE,64,2.0,2.0,78,0.00,CLR,,0.00,WeatherDisplay:10.37,2013-02-22 09:15:00,
2013-02-22 04:20:00,20.8,15.1,30.31,ESE,112,1.1,1.1,78,0.00,CLR,,0.00,WeatherDisplay:10.37,2013-02-22 09:20:00,
2013-02-22 04:25:00,20.8,15.1,30.31,ENE,58,1.0,3.0,78,0.00,CLR,,0.00,WeatherDisplay:10.37,2013-02-22 09:25:00,
2013-02-22 04:30:00,20.8,15.1,30.31,ENE,68,3.5,3.5,78,0.00,CLR,,0.00,WeatherDisplay:10.37,2013-02-22 09:30:00,
2013-02-22 04:35:00,20.8,15.1,30.31,ESE,112,2.3,2.3,78,0.00,CLR,,0.00,WeatherDisplay:10.37,2013-02-22 09:35:00,
2013-02-22 04:40:00,20.8,15.1,30.31,NE,45,3.5,3.5,78,0.00,CLR,,0.00,WeatherDisplay:10.37,2013-02-22 09:40:00,
2013-02-22 04:45:00,20.8,15.1,30.31,ENE,68,4.6,4.6,78,0.00,CLR,,0.00,WeatherDisplay:10.37,2013-02-22 09:45:00,
2013-02-22 04:50:00,20.8,15.4,30.31,ENE,68,3.9,3.9,79,0.00,CLR,,0.00,WeatherDisplay:10.37,2013-02-22 09:50:00,
2013-02-22 04:55:00,20.7,14.9,30.31,ENE,68,4.6,4.6,78,0.00,CLR,,0.00,WeatherDisplay:10.37,2013-02-22 09:55:00,
2013-02-22 05:00:00,20.8,15.1,30.32,ENE,68,3.5,3.5,78,0.00,CLR,,0.00,WeatherDisplay:10.37,2013-02-22 10:00:00,
2013-02-22 05:05:00,20.8,15.1,30.32,SE,135,2.3,2.3,78,0.00,CLR,,0.00,WeatherDisplay:10.37,2013-02-22 10:05:00,
2013-02-22 05:10:00,20.8,15.1,30.32,ESE,109,1.0,4.0,78,0.00,CLR,,0.00,WeatherDisplay:10.37,2013-02-22 10:10:00,
2013-02-22 05:15:00,20.8,15.1,30.32,ESE,112,2.3,2.3,78,0.00,CLR,,0.00,WeatherDisplay:10.37,2013-02-22 10:15:00,
2013-02-22 05:20:00,20.8,15.1,30.33,ESE,112,1.0,3.0,78,0.00,CLR,,0.00,WeatherDisplay:10.37,2013-02-22 10:20:00,
2013-02-22 05:25:00,20.8,15.1,30.33,ESE,118,1.0,3.0,78,0.00,CLR,,0.00,WeatherDisplay:10.37,2013-02-22 10:25:00,
2013-02-22 05:30:00,20.8,15.1,30.33,ESE,112,2.3,2.3,78,0.00,CLR,,0.00,WeatherDisplay:10.37,2013-02-22 10:30:00,
2013-02-22 05:35:00,20.7,14.9,30.33,East,94,0.0,4.0,78,0.00,CLR,,0.00,WeatherDisplay:10.37,2013-02-22 10:35:00,
2013-02-22 05:40:00,20.8,15.0,30.32,ESE,110,1.0,3.0,78,0.00,CLR,,0.00,WeatherDisplay:10.37,2013-02-22 10:40:00,
2013-02-22 05:45:00,20.8,15.1,30.32,East,93,1.0,5.0,78,0.00,CLR,,0.00,WeatherDisplay:10.37,2013-02-22 10:45:00,
2013-02-22 05:50:00,20.7,14.9,30.32,East,86,1.0,5.0,78,0.00,CLR,,0.00,WeatherDisplay:10.37,2013-02-22 10:50:00,
2013-02-22 05:55:00,20.7,14.9,30.32,NE,45,3.5,3.5,78,0.00,CLR,,0.00,WeatherDisplay:10.37,2013-02-22 10:55:00,
2013-02-22 06:00:00,20.7,15.2,30.31,East,80,2.0,5.0,79,0.00,CLR,,0.00,WeatherDisplay:10.37,2013-02-22 11:00:00,
2013-02-22 06:05:00,20.8,15.4,30.31,ESE,112,2.3,2.3,79,0.00,CLR,,0.00,WeatherDisplay:10.37,2013-02-22 11:05:00,
2013-02-22 06:10:00,20.8,15.4,30.31,East,90,2.6,2.6,79,0.00,CLR,,0.00,WeatherDisplay:10.37,2013-02-22 11:10:00,
2013-02-22 06:15:00,20.8,15.4,30.31,ESE,113,1.0,3.0,79,0.00,CLR,,0.00,WeatherDisplay:10.37,2013-02-22 11:15:00,
2013-02-22 06:20:00,20.8,15.4,30.30,ESE,112,4.6,4.6,79,0.00,CLR,,0.00,WeatherDisplay:10.37,2013-02-22 11:20:00,
2013-02-22 06:25:00,20.8,15.1,30.30,East,90,2.3,2.3,78,0.00,CLR,,0.00,WeatherDisplay:10.37,2013-02-22 11:25:00,
2013-02-22 06:30:00,21.0,15.5,30.30,East,99,2.0,5.0,79,0.00,CLR,,0.00,WeatherDisplay:10.37,2013-02-22 11:30:00,
2013-02-22 06:35:00,20.9,15.1,30.30,East,96,2.0,7.0,78,0.00,CLR,,0.00,WeatherDisplay:10.37,2013-02-22 11:35:00,
2013-02-22 06:40:00,21.0,15.2,30.29,ENE,68,8.1,8.1,78,0.00,CLR,,0.00,WeatherDisplay:10.37,2013-02-22 11:40:00,
2013-02-22 06:45:00,21.0,15.2,30.29,ENE,74,3.0,8.0,78,0.00,CLR,,0.00,WeatherDisplay:10.37,2013-02-22 11:45:00,
2013-02-22 06:50:00,21.1,15.3,30.29,East,83,3.0,7.0,78,0.00,CLR,,0.00,WeatherDisplay:10.37,2013-02-22 11:50:00,
2013-02-22 06:55:00,21.2,15.4,30.29,NE,45,6.9,6.9,78,0.00,CLR,,0.00,WeatherDisplay:10.37,2013-02-22 11:55:00,
2013-02-22 07:00:00,21.2,15.4,30.28,East,87,3.0,5.0,78,0.00,CLR,,0.00,WeatherDisplay:10.37,2013-02-22 12:00:00,
2013-02-22 07:05:00,21.2,15.4,30.28,East,90,6.9,6.9,78,0.00,CLR,,0.00,WeatherDisplay:10.37,2013-02-22 12:05:00,
2013-02-22 07:10:00,21.2,15.4,30.28,East,94,3.0,7.0,78,0.00,CLR,,0.00,WeatherDisplay:10.37,2013-02-22 12:10:00,
2013-02-22 07:15:00,21.4,15.6,30.28,East,98,2.0,5.0,78,0.00,CLR,,0.00,WeatherDisplay:10.37,2013-02-22 12:15:00,
2013-02-22 07:20:00,21.6,15.8,30.27,ENE,68,3.5,3.5,78,0.00,CLR,,0.00,WeatherDisplay:10.37,2013-02-22 12:20:00,
2013-02-22 07:25:00,21.7,15.9,30.27,ESE,113,2.0,5.0,78,0.00,CLR,,0.00,WeatherDisplay:10.37,2013-02-22 12:25:00,
2013-02-22 07:30:00,21.9,16.1,30.27,ENE,68,4.6,4.6,78,0.00,CLR,,0.00,WeatherDisplay:10.37,2013-02-22 12:30:00,
2013-02-22 07:35:00,21.9,16.1,30.27,ESE,112,4.6,4.6,78,0.00,CLR,,0.00,WeatherDisplay:10.37,2013-02-22 12:35:00,
2013-02-22 07:40:00,22.1,16.3,30.27,East,81,2.0,4.0,78,0.00,CLR,,0.00,WeatherDisplay:10.37,2013-02-22 12:40:00,
2013-02-22 07:45:00,22.3,16.2,30.27,ENE,78,2.0,6.0,77,0.00,CLR,,0.00,WeatherDisplay:10.37,2013-02-22 12:45:00,
2013-02-22 07:50:00,22.6,16.5,30.27,ESE,112,6.0,6.0,77,0.00,CLR,,0.00,WeatherDisplay:10.37,2013-02-22 12:50:00,
2013-02-22 07:55:00,22.6,16.5,30.27,East,97,2.0,6.0,77,0.00,CLR,,0.00,WeatherDisplay:10.37,2013-02-22 12:55:00,
2013-02-22 08:00:00,22.6,16.5,30.26,East,90,2.6,2.6,77,0.00,CLR,,0.00,WeatherDisplay:10.37,2013-02-22 13:00:00,
2013-02-22 08:05:00,22.8,16.7,30.26,ESE,104,2.0,6.0,77,0.00,CLR,,0.00,WeatherDisplay:10.37,2013-02-22 13:05:00,
2013-02-22 08:10:00,23.2,17.0,30.26,ENE,63,2.0,6.0,77,0.00,CLR,,0.00,WeatherDisplay:10.37,2013-02-22 13:10:00,
2013-02-22 08:15:00,23.4,17.2,30.26,ESE,112,4.6,4.6,77,0.00,CLR,,0.00,WeatherDisplay:10.37,2013-02-22 13:15:00,
2013-02-22 08:20:00,23.5,17.0,30.25,East,96,2.0,5.0,76,0.00,CLR,,0.00,WeatherDisplay:10.37,2013-02-22 13:20:00,
2013-02-22 08:25:00,23.5,17.1,30.25,ESE,112,3.5,3.5,76,0.00,CLR,,0.00,WeatherDisplay:10.37,2013-02-22 13:25:00,
2013-02-22 08:30:00,23.9,17.4,30.25,ESE,112,5.8,5.8,76,0.00,CLR,,0.00,WeatherDisplay:10.37,2013-02-22 13:30:00,
2013-02-22 08:35:00,24.0,17.5,30.25,ESE,122,2.0,7.0,76,0.00,CLR,,0.00,WeatherDisplay:10.37,2013-02-22 13:35:00,
2013-02-22 08:40:00,24.3,17.8,30.25,ESE,105,3.0,6.0,76,0.00,CLR,,0.00,WeatherDisplay:10.37,2013-02-22 13:40:00,
2013-02-22 08:45:00,24.4,17.6,30.25,ESE,112,4.6,4.6,75,0.00,CLR,,0.00,WeatherDisplay:10.37,2013-02-22 13:45:00,
2013-02-22 08:50:00,24.6,17.8,30.25,ESE,115,3.0,8.0,75,0.00,CLR,,0.00,WeatherDisplay:10.37,2013-02-22 13:50:00,
2013-02-22 08:55:00,24.8,18.0,30.25,East,98,3.0,8.0,75,0.00,CLR,,0.00,WeatherDisplay:10.37,2013-02-22 13:55:00,
2013-02-22 09:00:00,25.1,18.3,30.25,East,93,3.0,3.0,75,0.00,CLR,,0.00,WeatherDisplay:10.37,2013-02-22 14:00:00,
2013-02-22 09:05:00,25.3,18.5,30.25,East,90,9.2,9.2,75,0.00,CLR,,0.00,WeatherDisplay:10.37,2013-02-22 14:05:00,
2013-02-22 09:10:00,25.5,18.4,30.25,SE,135,4.9,4.9,74,0.00,CLR,,0.00,WeatherDisplay:10.37,2013-02-22 14:10:00,
2013-02-22 09:15:00,25.9,18.7,30.25,East,90,8.1,8.1,74,0.00,CLR,,0.00,WeatherDisplay:10.37,2013-02-22 14:15:00,
2013-02-22 09:20:00,26.2,18.7,30.25,ENE,77,3.0,6.0,73,0.00,CLR,,0.00,WeatherDisplay:10.37,2013-02-22 14:20:00,
2013-02-22 09:25:00,26.6,19.1,30.25,ENE,68,5.8,5.8,73,0.00,CLR,,0.00,WeatherDisplay:10.37,2013-02-22 14:25:00,
2013-02-22 09:30:00,27.0,19.1,30.25,East,90,6.9,6.9,72,0.00,CLR,,0.00,WeatherDisplay:10.37,2013-02-22 14:30:00,
2013-02-22 09:35:00,27.7,19.8,30.25,East,84,3.0,7.0,72,0.00,CLR,,0.00,WeatherDisplay:10.37,2013-02-22 14:35:00,
2013-02-22 09:40:00,28.4,20.2,30.23,SE,135,8.1,8.1,71,0.00,CLR,,0.00,WeatherDisplay:10.37,2013-02-22 14:40:00,
2013-02-22 09:45:00,28.4,19.9,30.23,ESE,106,5.0,7.0,70,0.00,CLR,,0.00,WeatherDisplay:10.37,2013-02-22 14:45:00,
2013-02-22 09:50:00,29.3,20.7,30.23,ESE,102,5.0,7.0,70,0.00,CLR,,0.00,WeatherDisplay:10.37,2013-02-22 14:50:00,
2013-02-22 09:55:00,29.7,20.7,30.23,ESE,112,3.5,4.0,69,0.00,CLR,,0.00,WeatherDisplay:10.37,2013-02-22 14:55:00,
2013-02-22 10:00:00,29.9,20.6,30.20,East,95,5.0,7.0,68,0.00,CLR,,0.00,WeatherDisplay:10.37,2013-02-22 15:00:00,
2013-02-22 10:05:00,30.6,20.9,30.20,East,90,4.6,4.7,67,0.00,CLR,,0.00,WeatherDisplay:10.37,2013-02-22 15:05:00,
2013-02-22 10:10:00,30.7,20.7,30.20,ENE,68,5.8,5.8,66,0.00,CLR,,0.00,WeatherDisplay:10.37,2013-02-22 15:10:00,
2013-02-22 10:15:00,31.1,21.1,30.20,East,79,5.0,7.0,66,0.00,CLR,,0.00,WeatherDisplay:10.37,2013-02-22 15:15:00,
2013-02-22 10:20:00,32.2,21.7,30.17,East,90,9.2,9.2,65,0.00,CLR,,0.00,WeatherDisplay:10.37,2013-02-22 15:20:00,
2013-02-22 10:25:00,32.0,21.6,30.17,East,87,3.0,5.0,65,0.00,CLR,,0.00,WeatherDisplay:10.37,2013-02-22 15:25:00,
2013-02-22 10:30:00,32.1,21.7,30.17,East,83,3.0,6.0,65,0.00,CLR,,0.00,WeatherDisplay:10.37,2013-02-22 15:30:00,
2013-02-22 10:35:00,32.9,22.0,30.17,ESE,112,6.9,6.9,64,0.00,CLR,,0.00,WeatherDisplay:10.37,2013-02-22 15:35:00,
2013-02-22 10:40:00,33.0,21.8,30.16,East,95,5.0,7.0,63,0.00,CLR,,0.00,WeatherDisplay:10.37,2013-02-22 15:40:00,
2013-02-22 10:45:00,33.3,22.0,30.16,ESE,112,11.5,11.5,63,0.00,CLR,,0.00,WeatherDisplay:10.37,2013-02-22 15:45:00,
2013-02-22 10:50:00,33.3,22.0,30.16,ESE,112,5.8,5.8,63,0.00,CLR,,0.00,WeatherDisplay:10.37,2013-02-22 15:50:00,
2013-02-22 10:55:00,33.3,22.0,30.16,East,95,5.0,9.0,63,0.00,CLR,,0.00,WeatherDisplay:10.37,2013-02-22 15:55:00,
2013-02-22 11:00:00,33.6,22.4,30.15,ENE,68,4.6,4.6,63,0.00,CLR,,0.00,WeatherDisplay:10.37,2013-02-22 16:00:00,
2013-02-22 11:05:00,33.6,22.4,30.15,ESE,112,3.9,3.9,63,0.00,CLR,,0.00,WeatherDisplay:10.37,2013-02-22 16:05:00,
2013-02-22 11:10:00,33.8,22.5,30.15,East,96,2.0,5.0,63,0.00,CLR,,0.00,WeatherDisplay:10.37,2013-02-22 16:10:00,
2013-02-22 11:15:00,33.8,22.5,30.15,ENE,68,2.3,2.9,63,0.00,CLR,,0.00,WeatherDisplay:10.37,2013-02-22 16:15:00,
2013-02-22 11:20:00,34.0,22.7,30.14,East,88,3.0,6.0,63,0.00,CLR,,0.00,WeatherDisplay:10.37,2013-02-22 16:20:00,
2013-02-22 11:25:00,34.2,22.5,30.14,ESE,104,3.0,9.0,62,0.00,CLR,,0.00,WeatherDisplay:10.37,2013-02-22 16:25:00,
2013-02-22 11:30:00,34.0,22.3,30.14,ENE,68,6.9,6.9,62,0.00,CLR,,0.00,WeatherDisplay:10.37,2013-02-22 16:30:00,
2013-02-22 11:35:00,34.3,22.7,30.14,East,94,3.0,5.0,62,0.00,CLR,,0.00,WeatherDisplay:10.37,2013-02-22 16:35:00,
2013-02-22 11:40:00,34.5,22.8,30.13,ESE,112,3.5,3.5,62,0.00,CLR,,0.00,WeatherDisplay:10.37,2013-02-22 16:40:00,
2013-02-22 11:45:00,35.1,23.0,30.13,East,91,3.0,9.0,61,0.00,CLR,,0.00,WeatherDisplay:10.37,2013-02-22 16:45:00,
2013-02-22 11:50:00,35.1,23.0,30.13,ESE,118,3.0,9.0,61,0.00,CLR,,0.00,WeatherDisplay:10.37,2013-02-22 16:50:00,
2013-02-22 11:55:00,35.4,23.3,30.13,ENE,68,4.6,4.6,61,0.00,CLR,,0.00,WeatherDisplay:10.37,2013-02-22 16:55:00,
2013-02-22 12:00:00,35.2,23.1,30.11,East,84,2.0,6.0,61,0.00,CLR,,0.00,WeatherDisplay:10.37,2013-02-22 17:00:00,
2013-02-22 12:05:00,35.1,23.0,30.11,East,96,3.0,10.0,61,0.00,CLR,,0.00,WeatherDisplay:10.37,2013-02-22 17:05:00,
2013-02-22 12:10:00,35.1,22.6,30.11,SE,135,9.2,9.2,60,0.00,CLR,,0.00,WeatherDisplay:10.37,2013-02-22 17:10:00,
2013-02-22 12:15:00,35.4,22.5,30.11,SE,131,7.0,10.0,59,0.00,CLR,,0.00,WeatherDisplay:10.37,2013-02-22 17:15:00,
2013-02-22 12:20:00,36.0,23.1,30.09,SE,130,6.0,7.0,59,0.00,CLR,,0.00,WeatherDisplay:10.37,2013-02-22 17:20:00,
2013-02-22 12:25:00,36.3,22.9,30.09,ESE,112,6.2,6.2,58,0.00,CLR,,0.00,WeatherDisplay:10.37,2013-02-22 17:25:00,
2013-02-22 12:30:00,36.5,23.1,30.09,SSE,158,12.7,12.7,58,0.00,CLR,,0.00,WeatherDisplay:10.37,2013-02-22 17:30:00,
2013-02-22 12:35:00,36.3,22.5,30.09,ENE,68,9.2,9.2,57,0.00,CLR,,0.00,WeatherDisplay:10.37,2013-02-22 17:35:00,
2013-02-22 12:40:00,35.8,22.4,30.08,SE,135,8.1,8.1,58,0.00,CLR,,0.00,WeatherDisplay:10.37,2013-02-22 17:40:00,
2013-02-22 12:45:00,35.4,22.1,30.08,SE,135,6.9,6.9,58,0.00,CLR,,0.00,WeatherDisplay:10.37,2013-02-22 17:45:00,
2013-02-22 12:50:00,35.2,22.3,30.08,SE,135,5.8,5.8,59,0.00,CLR,,0.00,WeatherDisplay:10.37,2013-02-22 17:50:00,
2013-02-22 12:55:00,35.1,22.2,30.08,SSE,158,9.2,9.2,59,0.00,CLR,,0.00,WeatherDisplay:10.37,2013-02-22 17:55:00,
2013-02-22 13:00:00,35.1,22.2,30.09,SE,135,6.9,6.9,59,0.00,CLR,,0.00,WeatherDisplay:10.37,2013-02-22 18:00:00,
2013-02-22 13:05:00,35.1,22.2,30.09,SE,135,5.8,5.8,59,0.00,CLR,,0.00,WeatherDisplay:10.37,2013-02-22 18:05:00,
2013-02-22 13:10:00,35.1,22.6,30.09,SE,135,5.8,5.8,60,0.00,CLR,,0.00,WeatherDisplay:10.37,2013-02-22 18:10:00,
2013-02-22 13:15:00,35.1,22.6,30.09,SSE,158,10.4,10.4,60,0.00,CLR,,0.00,WeatherDisplay:10.37,2013-02-22 18:15:00,
2013-02-22 13:20:00,34.7,23.0,30.09,SSE,158,5.8,5.8,62,0.00,CLR,,0.00,WeatherDisplay:10.37,2013-02-22 18:20:00,
2013-02-22 13:25:00,34.2,25.0,30.09,SE,135,10.4,10.4,69,0.00,CLR,,0.00,WeatherDisplay:10.37,2013-02-22 18:25:00,
2013-02-22 13:30:00,33.6,24.9,30.09,ENE,68,6.9,6.9,70,0.00,CLR,,0.00,WeatherDisplay:10.37,2013-02-22 18:30:00,
2013-02-22 13:35:00,34.0,25.6,30.09,ESE,112,5.8,5.8,71,0.00,CLR,,0.00,WeatherDisplay:10.37,2013-02-22 18:35:00,
2013-02-22 13:40:00,33.8,25.7,30.07,ESE,112,4.6,4.6,72,0.00,CLR,,0.00,WeatherDisplay:10.37,2013-02-22 18:40:00,
2013-02-22 13:45:00,33.6,25.9,30.07,NNW,338,2.3,2.3,73,0.00,CLR,,0.00,WeatherDisplay:10.37,2013-02-22 18:45:00,
2013-02-22 13:50:00,33.4,25.7,30.07,NW,315,0.0,0.9,73,0.00,CLR,,0.00,WeatherDisplay:10.37,2013-02-22 18:50:00,
2013-02-22 13:55:00,33.4,26.0,30.07,ESE,112,2.3,2.3,74,0.00,CLR,,0.00,WeatherDisplay:10.37,2013-02-22 18:55:00,
2013-02-22 14:00:00,33.3,26.2,30.08,South,180,0.0,0.3,75,0.00,CLR,,0.00,WeatherDisplay:10.37,2013-02-22 19:00:00,
2013-02-22 14:05:00,33.6,26.5,30.08,East,90,2.3,2.3,75,0.00,CLR,,0.00,WeatherDisplay:10.37,2013-02-22 19:05:00,
2013-02-22 14:10:00,34.0,27.2,30.08,North,0,2.3,2.3,76,0.00,CLR,,0.00,WeatherDisplay:10.37,2013-02-22 19:10:00,
2013-02-22 14:15:00,34.0,27.2,30.08,SE,135,1.5,1.5,76,0.00,CLR,,0.00,WeatherDisplay:10.37,2013-02-22 19:15:00,
2013-02-22 14:20:00,34.3,27.6,30.07,ENE,68,3.5,3.5,76,0.00,CLR,,0.00,WeatherDisplay:10.37,2013-02-22 19:20:00,
2013-02-22 14:25:00,35.1,28.3,30.07,East,90,1.3,1.5,76,0.00,CLR,,0.00,WeatherDisplay:10.37,2013-02-22 19:25:00,
2013-02-22 14:30:00,34.5,27.7,30.07,NW,315,2.3,2.3,76,0.00,CLR,,0.00,WeatherDisplay:10.37,2013-02-22 19:30:00,
2013-02-22 14:35:00,34.3,27.6,30.07,ESE,112,2.3,2.3,76,0.00,CLR,,0.00,WeatherDisplay:10.37,2013-02-22 19:35:00,
2013-02-22 14:40:00,34.7,27.9,30.06,ESE,112,1.1,1.7,76,0.00,CLR,,0.00,WeatherDisplay:10.37,2013-02-22 19:40:00,
2013-02-22 14:45:00,35.1,28.3,30.06,NW,315,1.1,1.1,76,0.00,CLR,,0.00,WeatherDisplay:10.37,2013-02-22 19:45:00,
2013-02-22 14:50:00,35.1,28.3,30.06,SE,135,3.5,3.5,76,0.00,CLR,,0.00,WeatherDisplay:10.37,2013-02-22 19:50:00,
2013-02-22 14:55:00,35.8,29.0,30.06,SE,135,3.5,3.5,76,0.00,CLR,,0.00,WeatherDisplay:10.37,2013-02-22 19:55:00,
2013-02-22 15:00:00,36.0,29.1,30.05,ESE,112,8.1,8.1,76,0.00,CLR,,0.00,WeatherDisplay:10.37,2013-02-22 20:00:00,
2013-02-22 15:05:00,36.1,29.3,30.05,SSW,202,6.9,6.9,76,0.00,CLR,,0.00,WeatherDisplay:10.37,2013-02-22 20:05:00,
2013-02-22 15:10:00,35.8,29.0,30.05,SE,135,8.1,8.1,76,0.00,CLR,,0.00,WeatherDisplay:10.37,2013-02-22 20:10:00,
2013-02-22 15:15:00,35.8,29.0,30.05,SE,135,12.7,12.7,76,0.00,CLR,,0.00,WeatherDisplay:10.37,2013-02-22 20:15:00,
2013-02-22 15:20:00,35.6,28.8,30.04,SE,135,6.9,6.9,76,0.00,CLR,,0.00,WeatherDisplay:10.37,2013-02-22 20:20:00,
2013-02-22 15:25:00,35.4,28.9,30.04,SE,135,5.8,5.8,77,0.00,CLR,,0.00,WeatherDisplay:10.37,2013-02-22 20:25:00,
2013-02-22 15:30:00,35.6,29.1,30.04,ESE,112,5.8,5.8,77,0.00,CLR,,0.00,WeatherDisplay:10.37,2013-02-22 20:30:00,
2013-02-22 15:35:00,35.6,29.1,30.04,SE,135,5.8,5.8,77,0.00,CLR,,0.00,WeatherDisplay:10.37,2013-02-22 20:35:00,
2013-02-22 15:40:00,35.6,29.1,30.02,ESE,112,4.6,4.6,77,0.00,CLR,,0.00,WeatherDisplay:10.37,2013-02-22 20:40:00,
2013-02-22 15:45:00,35.6,28.8,30.02,SE,135,6.9,6.9,76,0.00,CLR,,0.00,WeatherDisplay:10.37,2013-02-22 20:45:00,
2013-02-22 15:50:00,35.4,28.6,30.02,ESE,112,5.8,5.8,76,0.00,CLR,,0.00,WeatherDisplay:10.37,2013-02-22 20:50:00,
2013-02-22 15:55:00,35.6,28.8,30.02,SSE,158,4.6,4.6,76,0.00,CLR,,0.00,WeatherDisplay:10.37,2013-02-22 20:55:00,
2013-02-22 16:00:00,35.8,29.0,30.01,SSE,158,3.5,3.5,76,0.00,CLR,,0.00,WeatherDisplay:10.37,2013-02-22 21:00:00,
2013-02-22 16:05:00,35.8,29.0,30.01,SE,135,4.6,4.6,76,0.00,CLR,,0.00,WeatherDisplay:10.37,2013-02-22 21:05:00,
2013-02-22 16:10:00,35.6,28.5,30.01,SSE,158,5.8,5.8,75,0.00,CLR,,0.00,WeatherDisplay:10.37,2013-02-22 21:10:00,
2013-02-22 16:15:00,35.4,28.3,30.01,South,180,3.5,3.5,75,0.00,CLR,,0.00,WeatherDisplay:10.37,2013-02-22 21:15:00,
2013-02-22 16:20:00,35.4,28.3,30.01,SE,135,4.6,4.6,75,0.00,CLR,,0.00,WeatherDisplay:10.37,2013-02-22 21:20:00,
2013-02-22 16:25:00,35.4,28.0,30.01,SE,135,4.6,4.6,74,0.00,CLR,,0.00,WeatherDisplay:10.37,2013-02-22 21:25:00,
2013-02-22 16:30:00,35.4,28.0,30.01,SE,135,3.5,3.5,74,0.00,CLR,,0.03,WeatherDisplay:10.37,2013-02-22 21:30:00,
2013-02-22 16:35:00,35.4,28.0,30.01,SE,135,4.6,4.6,74,0.03,RA,,0.03,WeatherDisplay:10.37,2013-02-22 21:35:00,
2013-02-22 16:40:00,35.4,28.0,30.01,SE,135,3.5,3.5,74,0.03,RA,,0.03,WeatherDisplay:10.37,2013-02-22 21:40:00,
2013-02-22 16:45:00,35.4,28.0,30.01,SE,135,3.5,3.5,74,0.03,CLR,,0.03,WeatherDisplay:10.37,2013-02-22 21:45:00,
2013-02-22 16:50:00,35.2,27.8,30.01,ESE,112,2.3,2.3,74,0.03,CLR,,0.03,WeatherDisplay:10.37,2013-02-22 21:50:00,
2013-02-22 16:56:00,35.2,27.8,30.01,South,180,2.3,2.3,74,0.03,CLR,,0.03,WeatherDisplay:10.37,2013-02-22 21:56:00,
2013-02-22 17:01:00,35.2,27.8,30.00,SE,135,3.5,3.5,74,0.03,CLR,,0.03,WeatherDisplay:10.37,2013-02-22 22:01:00,
2013-02-22 17:06:00,35.4,28.0,30.00,East,90,5.8,5.8,74,0.03,CLR,,0.03,WeatherDisplay:10.37,2013-02-22 22:06:00,
2013-02-22 17:11:00,35.4,28.0,30.00,SE,135,4.6,4.6,74,0.03,CLR,,0.03,WeatherDisplay:10.37,2013-02-22 22:11:00,
2013-02-22 17:16:00,35.2,27.8,30.00,South,180,4.6,4.6,74,0.03,CLR,,0.03,WeatherDisplay:10.37,2013-02-22 22:16:00,
2013-02-22 17:21:00,35.2,27.8,30.01,SSE,158,3.5,3.5,74,0.03,CLR,,0.03,WeatherDisplay:10.37,2013-02-22 22:21:00,
2013-02-22 17:26:00,35.2,27.8,30.01,North,0,4.6,4.6,74,0.03,CLR,,0.03,WeatherDisplay:10.37,2013-02-22 22:26:00,
2013-02-22 17:31:00,35.2,27.8,30.01,SE,135,3.5,3.5,74,0.03,CLR,,0.03,WeatherDisplay:10.37,2013-02-22 22:31:00,
2013-02-22 17:36:00,35.2,27.8,30.01,ESE,112,2.6,2.6,74,0.00,CLR,,0.03,WeatherDisplay:10.37,2013-02-22 22:36:00,
2013-02-22 17:41:00,35.2,27.8,30.00,SW,225,3.5,3.5,74,0.00,CLR,,0.03,WeatherDisplay:10.37,2013-02-22 22:41:00,
2013-02-22 17:46:00,35.2,27.8,30.00,SSE,158,3.5,3.5,74,0.00,CLR,,0.03,WeatherDisplay:10.37,2013-02-22 22:46:00,
2013-02-22 17:51:00,35.2,27.8,30.00,SE,135,2.4,2.4,74,0.00,CLR,,0.03,WeatherDisplay:10.37,2013-02-22 22:51:00,
2013-02-22 17:56:00,35.2,27.8,30.00,WSW,248,2.3,2.3,74,0.00,CLR,,0.03,WeatherDisplay:10.37,2013-02-22 22:56:00,
2013-02-22 18:01:00,35.4,28.0,30.02,SSE,158,2.3,2.4,74,0.00,CLR,,0.03,WeatherDisplay:10.37,2013-02-22 23:01:00,
2013-02-22 18:06:00,35.4,28.0,30.02,SSE,158,3.5,3.5,74,0.00,CLR,,0.03,WeatherDisplay:10.37,2013-02-22 23:06:00,
2013-02-22 18:11:00,35.4,28.0,30.02,SE,135,4.6,4.6,74,0.00,CLR,,0.03,WeatherDisplay:10.37,2013-02-22 23:11:00,
2013-02-22 18:16:00,35.4,28.0,30.02,SE,135,3.5,3.5,74,0.00,CLR,,0.03,WeatherDisplay:10.37,2013-02-22 23:16:00,
2013-02-22 18:21:00,35.2,27.8,30.01,ESE,112,2.3,2.3,74,0.00,CLR,,0.03,WeatherDisplay:10.37,2013-02-22 23:21:00,
2013-02-22 18:26:00,35.2,27.8,30.01,WNW,292,3.5,3.5,74,0.00,CLR,,0.03,WeatherDisplay:10.37,2013-02-22 23:26:00,
2013-02-22 18:31:00,35.2,28.1,30.01,SSE,158,3.5,3.5,75,0.00,CLR,,0.03,WeatherDisplay:10.37,2013-02-22 23:31:00,
2013-02-22 18:36:00,35.2,28.1,30.01,SE,135,2.3,2.6,75,0.00,CLR,,0.03,WeatherDisplay:10.37,2013-02-22 23:36:00,
2013-02-22 18:41:00,35.2,28.1,30.02,SSE,158,3.5,3.5,75,0.00,CLR,,0.03,WeatherDisplay:10.37,2013-02-22 23:41:00,
2013-02-22 18:46:00,35.2,28.1,30.02,SE,135,4.6,4.6,75,0.00,CLR,,0.03,WeatherDisplay:10.37,2013-02-22 23:46:00,
2013-02-22 18:51:00,35.2,28.1,30.02,South,180,2.3,2.3,75,0.00,CLR,,0.03,WeatherDisplay:10.37,2013-02-22 23:51:00,
2013-02-22 18:56:00,35.2,28.1,30.02,South,180,4.6,4.6,75,0.00,CLR,,0.03,WeatherDisplay:10.37,2013-02-22 23:56:00,
2013-02-22 19:01:00,35.2,28.1,30.01,SE,135,2.3,2.3,75,0.00,CLR,,0.03,WeatherDisplay:10.37,2013-02-23 00:01:00,
2013-02-22 19:06:00,35.2,28.4,30.01,SSE,158,3.5,3.5,76,0.00,CLR,,0.03,WeatherDisplay:10.37,2013-02-23 00:06:00,
2013-02-22 19:11:00,35.2,28.4,30.01,SE,135,4.6,4.6,76,0.00,CLR,,0.03,WeatherDisplay:10.37,2013-02-23 00:11:00,
2013-02-22 19:16:00,35.4,28.6,30.01,SSE,158,2.3,3.0,76,0.00,CLR,,0.03,WeatherDisplay:10.37,2013-02-23 00:16:00,
2013-02-22 19:21:00,35.2,28.4,30.02,SSE,158,2.3,2.3,76,0.00,CLR,,0.03,WeatherDisplay:10.37,2013-02-23 00:21:00,
2013-02-22 19:26:00,35.2,28.4,30.02,SSE,158,2.3,2.3,76,0.00,CLR,,0.03,WeatherDisplay:10.37,2013-02-23 00:26:00,
2013-02-22 19:31:00,35.1,28.3,30.02,South,180,4.6,4.6,76,0.00,CLR,,0.03,WeatherDisplay:10.37,2013-02-23 00:31:00,
2013-02-22 19:36:00,35.2,28.4,30.02,SE,135,4.6,4.6,76,0.00,CLR,,0.03,WeatherDisplay:10.37,2013-02-23 00:36:00,
2013-02-22 19:41:00,35.2,28.4,30.01,ESE,112,4.6,4.6,76,0.00,CLR,,0.03,WeatherDisplay:10.37,2013-02-23 00:41:00,
2013-02-22 19:46:00,35.2,28.4,30.01,SSE,158,2.3,2.3,76,0.00,CLR,,0.03,WeatherDisplay:10.37,2013-02-23 00:46:00,
2013-02-22 19:51:00,35.1,28.3,30.01,ESE,112,1.1,1.6,76,0.00,CLR,,0.03,WeatherDisplay:10.37,2013-02-23 00:51:00,
2013-02-22 19:56:00,35.1,28.3,30.01,NNE,22,2.3,2.3,76,0.00,CLR,,0.03,WeatherDisplay:10.37,2013-02-23 00:56:00,
2013-02-22 20:01:00,35.1,28.3,30.01,SSE,158,3.5,3.5,76,0.00,CLR,,0.03,WeatherDisplay:10.37,2013-02-23 01:01:00,
2013-02-22 20:06:00,35.2,28.8,30.01,SE,135,5.8,5.8,77,0.00,CLR,,0.03,WeatherDisplay:10.37,2013-02-23 01:06:00,
2013-02-22 20:11:00,35.2,28.8,30.01,ESE,112,4.6,4.6,77,0.00,CLR,,0.03,WeatherDisplay:10.37,2013-02-23 01:11:00,
2013-02-22 20:16:00,35.2,28.8,30.01,SE,135,4.6,4.6,77,0.00,CLR,,0.03,WeatherDisplay:10.37,2013-02-23 01:16:00,
2013-02-22 20:21:00,35.4,28.9,30.00,SSE,158,4.6,4.6,77,0.00,CLR,,0.03,WeatherDisplay:10.37,2013-02-23 01:21:00,
2013-02-22 20:26:00,35.4,28.9,30.00,SE,135,5.8,5.8,77,0.00,CLR,,0.03,WeatherDisplay:10.37,2013-02-23 01:26:00,
2013-02-22 20:31:00,35.4,28.9,30.00,SSE,158,2.3,2.3,77,0.00,CLR,,0.03,WeatherDisplay:10.37,2013-02-23 01:31:00,
2013-02-22 20:36:00,35.4,28.9,30.00,SSE,158,2.3,2.3,77,0.00,CLR,,0.03,WeatherDisplay:10.37,2013-02-23 01:36:00,
2013-02-22 20:41:00,35.4,28.9,30.00,SE,135,2.3,2.3,77,0.00,CLR,,0.03,WeatherDisplay:10.37,2013-02-23 01:41:00,
2013-02-22 20:46:00,35.4,28.9,30.00,SSE,158,3.5,3.5,77,0.00,CLR,,0.03,WeatherDisplay:10.37,2013-02-23 01:46:00,
2013-02-22 20:51:00,35.6,29.1,30.00,SE,135,3.5,3.5,77,0.00,CLR,,0.03,WeatherDisplay:10.37,2013-02-23 01:51:00,
2013-02-22 20:56:00,35.6,29.1,30.00,North,0,2.3,2.4,77,0.00,CLR,,0.03,WeatherDisplay:10.37,2013-02-23 01:56:00,
2013-02-22 21:01:00,35.6,29.1,30.00,SE,135,2.3,2.3,77,0.00,CLR,,0.03,WeatherDisplay:10.37,2013-02-23 02:01:00,
2013-02-22 21:06:00,35.4,28.9,30.00,SE,135,2.3,2.3,77,0.00,CLR,,0.03,WeatherDisplay:10.37,2013-02-23 02:06:00,
2013-02-22 21:11:00,35.4,28.9,30.00,ESE,112,4.3,4.3,77,0.00,CLR,,0.03,WeatherDisplay:10.37,2013-02-23 02:11:00,
2013-02-22 21:16:00,35.6,29.1,30.00,SE,135,3.5,3.5,77,0.00,CLR,,0.03,WeatherDisplay:10.37,2013-02-23 02:16:00,
2013-02-22 21:21:00,35.6,29.1,30.00,East,90,4.6,4.6,77,0.00,CLR,,0.03,WeatherDisplay:10.37,2013-02-23 02:21:00,
2013-02-22 21:26:00,35.6,29.1,30.00,SE,135,3.5,3.5,77,0.00,CLR,,0.03,WeatherDisplay:10.37,2013-02-23 02:26:00,
2013-02-22 21:31:00,35.4,28.9,30.00,South,180,1.1,1.7,77,0.00,CLR,,0.03,WeatherDisplay:10.37,2013-02-23 02:31:00,
2013-02-22 21:36:00,35.4,28.9,30.00,East,90,2.3,2.3,77,0.00,CLR,,0.03,WeatherDisplay:10.37,2013-02-23 02:36:00,
2013-02-22 21:41:00,35.4,28.9,30.00,SSE,158,2.3,2.3,77,0.00,CLR,,0.03,WeatherDisplay:10.37,2013-02-23 02:41:00,
2013-02-22 21:46:00,35.2,28.8,30.00,ESE,112,1.1,1.1,77,0.00,CLR,,0.03,WeatherDisplay:10.37,2013-02-23 02:46:00,
2013-02-22 21:51:00,35.2,28.8,30.00,NW,315,0.0,1.0,77,0.00,CLR,,0.03,WeatherDisplay:10.37,2013-02-23 02:51:00,
2013-02-22 21:56:00,35.1,28.6,30.00,ENE,68,2.3,2.3,77,0.00,CLR,,0.03,WeatherDisplay:10.37,2013-02-23 02:56:00,
2013-02-22 22:01:00,35.2,28.8,30.00,SE,135,4.6,4.6,77,0.00,CLR,,0.03,WeatherDisplay:10.37,2013-02-23 03:01:00,
2013-02-22 22:06:00,35.1,28.6,30.00,SE,135,2.3,2.3,77,0.00,CLR,,0.03,WeatherDisplay:10.37,2013-02-23 03:06:00,
2013-02-22 22:12:00,34.9,28.4,30.00,NNW,338,2.3,2.3,77,0.00,CLR,,0.03,WeatherDisplay:10.37,2013-02-23 03:12:00,
2013-02-22 22:17:00,34.7,28.2,30.00,South,180,1.1,1.4,77,0.00,CLR,,0.03,WeatherDisplay:10.37,2013-02-23 03:17:00,
2013-02-22 22:22:00,34.5,28.1,30.00,SW,225,3.5,3.5,77,0.00,CLR,,0.03,WeatherDisplay:10.37,2013-02-23 03:22:00,
2013-02-22 22:27:00,34.7,28.2,30.00,SSE,158,2.3,2.3,77,0.00,CLR,,0.03,WeatherDisplay:10.37,2013-02-23 03:27:00,
2013-02-22 22:32:00,34.7,28.2,30.00,SE,135,2.3,2.3,77,0.00,CLR,,0.03,WeatherDisplay:10.37,2013-02-23 03:32:00,
2013-02-22 22:37:00,34.7,28.2,30.00,SE,135,3.5,3.5,77,0.00,CLR,,0.03,WeatherDisplay:10.37,2013-02-23 03:37:00,
2013-02-22 22:42:00,34.7,28.2,30.00,South,180,2.3,2.3,77,0.00,CLR,,0.03,WeatherDisplay:10.37,2013-02-23 03:42:00,
2013-02-22 22:47:00,34.7,28.2,30.00,SSE,158,1.1,1.1,77,0.00,CLR,,0.03,WeatherDisplay:10.37,2013-02-23 03:47:00,
2013-02-22 22:52:00,34.5,28.1,30.00,SSE,158,1.1,1.1,77,0.00,CLR,,0.03,WeatherDisplay:10.37,2013-02-23 03:52:00,
2013-02-22 22:57:00,34.5,28.1,30.00,SSE,158,4.6,4.6,77,0.00,CLR,,0.03,WeatherDisplay:10.37,2013-02-23 03:57:00,
2013-02-22 23:02:00,34.5,28.1,29.96,SSW,202,0.0,0.6,77,0.00,CLR,,0.03,WeatherDisplay:10.37,2013-02-23 04:02:00,
2013-02-22 23:07:00,34.5,28.1,29.96,ESE,112,0.0,0.3,77,0.00,CLR,,0.03,WeatherDisplay:10.37,2013-02-23 04:07:00,
2013-02-22 23:12:00,34.5,28.1,29.96,ESE,112,4.6,4.6,77,0.00,CLR,,0.03,WeatherDisplay:10.37,2013-02-23 04:12:00,
2013-02-22 23:17:00,34.7,28.2,29.96,ESE,112,4.8,4.8,77,0.00,CLR,,0.03,WeatherDisplay:10.37,2013-02-23 04:17:00,
2013-02-22 23:22:00,34.5,28.1,29.99,South,180,2.8,2.8,77,0.00,CLR,,0.03,WeatherDisplay:10.37,2013-02-23 04:22:00,
2013-02-22 23:27:00,34.3,28.2,29.99,ESE,112,2.3,2.3,78,0.00,CLR,,0.03,WeatherDisplay:10.37,2013-02-23 04:27:00,
2013-02-22 23:32:00,34.3,28.2,29.99,ESE,112,2.5,2.5,78,0.00,CLR,,0.03,WeatherDisplay:10.37,2013-02-23 04:32:00,
2013-02-22 23:37:00,34.3,28.2,29.99,SE,135,0.0,0.5,78,0.00,CLR,,0.03,WeatherDisplay:10.37,2013-02-23 04:37:00,
2013-02-22 23:42:00,34.3,28.2,30.01,ESE,112,2.3,2.3,78,0.00,CLR,,0.03,WeatherDisplay:10.37,2013-02-23 04:42:00,
2013-02-22 23:47:00,34.3,28.2,30.01,ESE,112,2.3,2.3,78,0.00,CLR,,0.03,WeatherDisplay:10.37,2013-02-23 04:47:00,
2013-02-22 23:52:00,34.5,28.4,30.01,WSW,248,2.3,2.3,78,0.00,CLR,,0.03,WeatherDisplay:10.37,2013-02-23 04:52:00,
2013-02-22 23:57:00,34.5,28.4,30.01,SE,135,3.5,3.5,78,0.00,CLR,,0.03,WeatherDisplay:10.37,2013-02-23 04:57:00,